Time;durP1;ratioP1;P1;durP2;ratioP2;P2;SDS_P1;SDS_P2;PMS_P1;PMS_P2;Temp;Humidity;BMP_temperature;BMP_pressure;BME280_temperature;BME280_humidity;BME280_pressure;Samples;Min_cycle;Max_cycle;Signal;HPM_P1;HPM_P2
2021/04/27 00:02:16;;;;;;;14.25;8.75;;;6.90;24.30;;;;;;5021750;28;20399;-75
2021/04/27 00:04:42;;;;;;;13.93;7.93;;;6.90;24.30;;;;;;5021454;28;20392;-76
2021/04/27 00:07:07;;;;;;;14.18;8.30;;;7.00;23.90;;;;;;5002329;28;20454;-77
2021/04/27 00:09:33;;;;;;;14.55;8.20;;;7.10;23.90;;;;;;4999727;28;20428;-77
2021/04/27 00:11:59;;;;;;;12.23;8.47;;;7.10;23.10;;;;;;5016155;28;20388;-77
2021/04/27 00:14:26;;;;;;;12.23;7.95;;;7.10;22.80;;;;;;5000257;28;20432;-76
2021/04/27 00:16:51;;;;;;;11.98;8.60;;;7.10;22.30;;;;;;5018963;28;20439;-77
2021/04/27 00:19:17;;;;;;;11.18;8.02;;;7.10;22.50;;;;;;5018997;28;20475;-77
2021/04/27 00:21:43;;;;;;;14.50;8.77;;;7.10;22.50;;;;;;5019782;28;20900;-76
2021/04/27 00:24:09;;;;;;;13.50;8.43;;;7.10;22.10;;;;;;5020195;28;20389;-77
2021/04/27 00:26:35;;;;;;;11.93;8.20;;;7.10;22.60;;;;;;5019278;28;20874;-76
2021/04/27 00:29:01;;;;;;;13.97;7.97;;;7.10;22.10;;;;;;5024387;28;20444;-77
2021/04/27 00:31:29;;;;;;;12.90;8.23;;;7.00;21.80;;;;;;5021819;28;20424;-77
2021/04/27 00:33:56;;;;;;;14.00;7.88;;;7.00;21.40;;;;;;4999655;28;20424;-76
2021/04/27 00:36:22;;;;;;;21.30;8.10;;;7.10;21.20;;;;;;4998775;28;20389;-77
2021/04/27 00:38:48;;;;;;;10.85;7.35;;;7.10;21.30;;;;;;5016935;28;20393;-77
2021/04/27 00:41:14;;;;;;;12.23;9.00;;;7.00;21.00;;;;;;5018174;28;20380;-77
2021/04/27 00:43:40;;;;;;;12.63;7.63;;;7.00;21.00;;;;;;5018565;28;20392;-77
2021/04/27 00:46:06;;;;;;;11.32;8.05;;;7.00;21.70;;;;;;5019150;28;20380;-78
2021/04/27 00:48:32;;;;;;;13.07;8.10;;;7.00;21.10;;;;;;5018677;28;20508;-77
2021/04/27 00:50:58;;;;;;;16.37;8.20;;;6.90;22.20;;;;;;4995648;28;20529;-76
2021/04/27 00:53:24;;;;;;;12.88;8.50;;;6.90;23.50;;;;;;5013004;28;20396;-76
2021/04/27 00:55:50;;;;;;;11.68;8.18;;;7.00;22.70;;;;;;5012967;28;20758;-78
2021/04/27 00:58:16;;;;;;;12.67;8.30;;;7.00;23.90;;;;;;5013761;28;20395;-76
2021/04/27 01:00:43;;;;;;;15.15;8.63;;;7.00;24.10;;;;;;5013321;28;20392;-75
2021/04/27 01:03:09;;;;;;;17.67;8.70;;;7.10;22.80;;;;;;5017040;28;20400;-77
2021/04/27 01:05:37;;;;;;;10.15;7.60;;;7.10;22.90;;;;;;5016008;28;20412;-75
2021/04/27 01:08:11;;;;;;;13.50;7.90;;;7.10;23.30;;;;;;5014123;28;20729;-76
2021/04/27 01:11:05;;;;;;;14.75;8.50;;;7.00;23.60;;;;;;5014471;28;20459;-76
2021/04/27 01:13:54;;;;;;;12.93;8.20;;;6.70;26.10;;;;;;4999123;28;20393;-78
2021/04/27 01:16:20;;;;;;;15.50;7.97;;;6.40;28.40;;;;;;5028074;28;20384;-76
2021/04/27 01:18:52;;;;;;;11.00;8.30;;;6.40;29.80;;;;;;5030753;28;20407;-76
2021/04/27 01:21:21;;;;;;;12.18;8.40;;;6.20;30.30;;;;;;5016590;28;20381;-77
2021/04/27 01:23:55;;;;;;;15.27;8.93;;;6.00;30.10;;;;;;5013764;28;20531;-77
2021/04/27 01:26:27;;;;;;;10.52;8.25;;;5.90;31.80;;;;;;5015256;28;20396;-77
2021/04/27 01:28:53;;;;;;;13.85;9.20;;;5.80;30.20;;;;;;5012271;28;20396;-76
2021/04/27 01:31:20;;;;;;;12.35;8.93;;;5.70;30.30;;;;;;5012540;28;20491;-76
2021/04/27 01:33:46;;;;;;;12.02;8.38;;;5.60;31.30;;;;;;5017751;28;20391;-77
2021/04/27 01:36:12;;;;;;;15.30;9.88;;;5.90;31.70;;;;;;5001815;28;20396;-77
2021/04/27 01:38:38;;;;;;;13.60;8.15;;;5.70;31.80;;;;;;4997509;28;20389;-77
2021/04/27 01:41:04;;;;;;;15.63;9.43;;;5.60;33.30;;;;;;5015354;28;20388;-76
2021/04/27 01:43:30;;;;;;;16.77;9.80;;;5.40;33.00;;;;;;5016194;28;20384;-77
2021/04/27 01:46:00;;;;;;;14.45;9.43;;;5.40;34.10;;;;;;5016829;28;20778;-77
2021/04/27 01:48:25;;;;;;;14.00;8.82;;;5.60;35.40;;;;;;5015191;28;20385;-76
2021/04/27 01:50:54;;;;;;;15.37;9.30;;;5.80;33.50;;;;;;5018246;28;20967;-76
2021/04/27 01:53:20;;;;;;;24.17;9.67;;;5.80;34.10;;;;;;4998477;28;20388;-77
2021/04/27 01:55:46;;;;;;;13.88;9.20;;;5.80;32.60;;;;;;5016097;28;20393;-76
2021/04/27 01:58:12;;;;;;;13.63;8.30;;;5.60;34.40;;;;;;5012648;28;20471;-76
2021/04/27 02:00:37;;;;;;;13.88;8.52;;;5.80;33.90;;;;;;5011908;28;20416;-76
2021/04/27 02:03:03;;;;;;;12.73;8.57;;;6.20;31.00;;;;;;4993856;28;20420;-77
2021/04/27 02:05:29;;;;;;;12.30;8.35;;;6.40;31.30;;;;;;5013649;28;20975;-77
2021/04/27 02:07:55;;;;;;;15.97;9.00;;;6.40;31.30;;;;;;4996378;28;20419;-77
2021/04/27 02:10:21;;;;;;;12.60;8.37;;;6.40;29.20;;;;;;5014968;28;20471;-76
2021/04/27 02:12:51;;;;;;;13.35;8.60;;;6.30;28.50;;;;;;5017398;28;20417;-77
2021/04/27 02:15:20;;;;;;;13.88;9.00;;;6.30;28.60;;;;;;5022387;28;20746;-76
2021/04/27 02:18:01;;;;;;;13.15;8.70;;;6.20;28.60;;;;;;5017953;28;20419;-77
2021/04/27 02:20:29;;;;;;;15.93;8.98;;;6.20;29.40;;;;;;5020585;28;20381;-76
2021/04/27 02:22:56;;;;;;;15.07;8.60;;;6.10;29.90;;;;;;5004347;28;20442;-76
2021/04/27 02:25:23;;;;;;;14.18;8.50;;;6.00;30.90;;;;;;5022550;28;20411;-76
2021/04/27 02:27:50;;;;;;;13.60;8.88;;;6.00;31.70;;;;;;5015917;28;20479;-77
2021/04/27 02:30:19;;;;;;;16.10;9.55;;;5.90;31.50;;;;;;5034821;28;20404;-76
2021/04/27 02:32:45;;;;;;;11.40;8.40;;;5.80;31.40;;;;;;5026887;28;20384;-77
2021/04/27 02:35:13;;;;;;;15.52;8.88;;;5.90;32.20;;;;;;5026676;28;20428;-75
2021/04/27 02:37:41;;;;;;;24.75;10.80;;;5.90;30.80;;;;;;5021048;28;20377;-76
2021/04/27 02:40:08;;;;;;;16.05;9.20;;;5.90;32.20;;;;;;5016467;28;20421;-75
2021/04/27 02:42:35;;;;;;;14.38;9.05;;;5.80;31.30;;;;;;5016108;28;20862;-77
2021/04/27 02:45:02;;;;;;;15.60;9.02;;;5.80;32.30;;;;;;5015427;28;20442;-76
2021/04/27 02:47:28;;;;;;;15.13;9.13;;;5.80;32.40;;;;;;5015592;28;20420;-77
2021/04/27 02:49:53;;;;;;;14.87;9.53;;;5.70;32.30;;;;;;5015882;28;20436;-76
2021/04/27 02:52:19;;;;;;;12.93;9.20;;;5.80;33.00;;;;;;4998160;28;20472;-76
2021/04/27 02:54:44;;;;;;;14.50;9.50;;;5.70;34.30;;;;;;5015609;28;20387;-76
2021/04/27 02:57:10;;;;;;;15.32;9.30;;;5.40;35.10;;;;;;5017318;28;20735;-77
2021/04/27 02:59:36;;;;;;;19.77;9.98;;;5.10;35.60;;;;;;5015783;28;20427;-76
2021/04/27 03:02:02;;;;;;;20.63;9.75;;;5.10;38.30;;;;;;5015423;28;20392;-77
2021/04/27 03:04:27;;;;;;;14.53;9.40;;;5.20;37.90;;;;;;5021297;28;20422;-76
2021/04/27 03:06:53;;;;;;;18.65;9.60;;;5.40;36.90;;;;;;5013035;28;20419;-77
2021/04/27 03:09:18;;;;;;;15.55;9.50;;;5.60;34.60;;;;;;5023747;28;20409;-77
2021/04/27 03:11:44;;;;;;;12.85;8.98;;;5.70;33.90;;;;;;5017507;28;20389;-77
2021/04/27 03:14:09;;;;;;;14.98;8.60;;;5.80;31.50;;;;;;5017179;28;20388;-76
2021/04/27 03:16:35;;;;;;;15.48;8.70;;;5.80;30.70;;;;;;5015520;28;20463;-76
2021/04/27 03:19:01;;;;;;;15.80;8.98;;;5.80;31.80;;;;;;5013503;28;20493;-76
2021/04/27 03:21:26;;;;;;;13.53;9.47;;;5.70;31.30;;;;;;5013780;28;20389;-76
2021/04/27 03:23:54;;;;;;;12.70;8.87;;;5.70;32.30;;;;;;5013544;28;20392;-76
2021/04/27 03:26:20;;;;;;;12.13;8.50;;;5.60;31.50;;;;;;5013831;28;20494;-77
2021/04/27 03:28:46;;;;;;;17.53;8.90;;;5.60;32.20;;;;;;5013934;28;20473;-75
2021/04/27 03:31:11;;;;;;;12.23;8.43;;;5.60;32.60;;;;;;5014120;28;20412;-77
2021/04/27 03:33:37;;;;;;;14.52;8.70;;;5.50;33.40;;;;;;4996782;28;20388;-76
2021/04/27 03:36:03;;;;;;;13.73;9.20;;;5.50;33.40;;;;;;5014528;28;20385;-77
2021/04/27 03:38:29;;;;;;;14.63;8.50;;;5.50;33.50;;;;;;5014207;28;20385;-76
2021/04/27 03:40:54;;;;;;;16.05;9.02;;;5.50;32.90;;;;;;5014855;28;20893;-75
2021/04/27 03:43:20;;;;;;;17.25;9.55;;;5.40;33.50;;;;;;5015688;28;20897;-74
2021/04/27 03:45:46;;;;;;;15.15;9.65;;;5.40;34.70;;;;;;5013281;28;20754;-77
2021/04/27 03:48:14;;;;;;;14.53;8.97;;;5.40;33.20;;;;;;4997496;28;20931;-77
2021/04/27 03:50:40;;;;;;;15.02;9.13;;;5.20;35.00;;;;;;5009031;28;20404;-77
2021/04/27 03:53:06;;;;;;;16.42;9.55;;;4.90;36.80;;;;;;5015336;28;20452;-76
2021/04/27 03:55:32;;;;;;;20.67;12.00;;;4.60;37.30;;;;;;5031962;28;20388;-77
2021/04/27 03:57:58;;;;;;;17.25;9.90;;;4.40;38.20;;;;;;5031771;28;20393;-77
2021/04/27 04:00:24;;;;;;;20.07;12.30;;;4.20;38.90;;;;;;5024508;28;20399;-78
2021/04/27 04:02:50;;;;;;;16.00;10.48;;;4.10;40.60;;;;;;5010253;28;20423;-77
2021/04/27 04:05:15;;;;;;;14.52;9.50;;;4.00;42.40;;;;;;5009327;28;20897;-77
2021/04/27 04:07:41;;;;;;;15.63;10.70;;;4.00;44.30;;;;;;5027752;28;20392;-78
2021/04/27 04:10:10;;;;;;;14.55;9.60;;;4.00;44.40;;;;;;5010343;28;20480;-77
2021/04/27 04:12:37;;;;;;;206.13;116.55;;;3.90;43.40;;;;;;5004723;28;20750;-78
2021/04/27 04:15:08;;;;;;;18.57;10.77;;;4.00;44.80;;;;;;5023375;28;20380;-78
2021/04/27 04:17:34;;;;;;;92.77;52.23;;;4.50;46.40;;;;;;5028363;28;20394;-77
2021/04/27 04:20:00;;;;;;;90.35;50.25;;;4.70;45.80;;;;;;5020081;28;20435;-77
2021/04/27 04:22:25;;;;;;;34.67;21.15;;;4.90;43.50;;;;;;5018813;28;20404;-76
2021/04/27 04:24:51;;;;;;;27.17;14.60;;;4.90;42.50;;;;;;5024940;28;20467;-76
2021/04/27 04:27:16;;;;;;;22.07;13.20;;;5.10;42.30;;;;;;5022210;28;20393;-76
2021/04/27 04:29:42;;;;;;;23.30;10.40;;;5.30;39.60;;;;;;5020091;28;20420;-75
2021/04/27 04:32:12;;;;;;;26.25;11.45;;;5.40;35.00;;;;;;5015043;28;20427;-76
2021/04/27 04:34:40;;;;;;;14.67;9.17;;;5.30;36.60;;;;;;5012205;28;20472;-76
2021/04/27 04:37:05;;;;;;;13.05;8.90;;;5.20;35.50;;;;;;5011808;28;20447;-76
2021/04/27 04:39:31;;;;;;;13.98;8.35;;;4.90;37.10;;;;;;5012475;28;20612;-76
2021/04/27 04:41:56;;;;;;;15.23;8.38;;;4.70;37.40;;;;;;5012295;28;20424;-75
2021/04/27 04:44:22;;;;;;;13.35;9.07;;;4.50;37.60;;;;;;5012421;28;20535;-75
2021/04/27 04:46:48;;;;;;;14.07;8.35;;;4.40;38.00;;;;;;5012720;28;20858;-76
2021/04/27 04:49:13;;;;;;;15.13;7.85;;;4.40;39.30;;;;;;5013569;28;20415;-76
2021/04/27 04:51:39;;;;;;;12.33;8.13;;;4.40;38.70;;;;;;5015006;28;20389;-77
2021/04/27 04:54:05;;;;;;;13.80;8.50;;;4.30;38.90;;;;;;4996592;28;20476;-76
2021/04/27 04:56:31;;;;;;;14.13;8.90;;;4.40;39.00;;;;;;5014793;28;20390;-77
2021/04/27 04:58:56;;;;;;;19.47;8.20;;;4.60;40.50;;;;;;5013291;28;20816;-77
2021/04/27 05:01:23;;;;;;;14.33;8.67;;;4.80;40.50;;;;;;5012720;28;20774;-76
2021/04/27 05:03:49;;;;;;;17.00;8.45;;;5.10;37.30;;;;;;5012013;28;20857;-76
2021/04/27 05:06:17;;;;;;;15.68;8.50;;;5.20;36.70;;;;;;5011559;28;20407;-76
2021/04/27 05:08:45;;;;;;;14.13;8.40;;;5.10;36.40;;;;;;5012453;28;20396;-76
2021/04/27 05:11:12;;;;;;;15.70;8.30;;;5.40;33.40;;;;;;5012160;28;20393;-76
2021/04/27 05:13:38;;;;;;;15.30;8.70;;;5.30;33.30;;;;;;5013565;28;20388;-75
2021/04/27 05:16:07;;;;;;;12.43;8.50;;;5.10;33.20;;;;;;5012042;28;20399;-76
2021/04/27 05:18:33;;;;;;;15.13;8.07;;;5.10;33.70;;;;;;5012308;28;20495;-76
2021/04/27 05:20:58;;;;;;;14.57;7.93;;;5.20;35.00;;;;;;5012297;28;20400;-75
2021/04/27 05:23:24;;;;;;;14.27;8.40;;;5.30;34.20;;;;;;5012858;28;20389;-77
2021/04/27 05:25:50;;;;;;;14.00;8.50;;;5.40;34.50;;;;;;5014406;28;20412;-76
2021/04/27 05:28:15;;;;;;;24.33;8.70;;;5.60;34.90;;;;;;4996895;28;20419;-76
2021/04/27 05:30:41;;;;;;;17.60;8.13;;;5.60;34.70;;;;;;5015808;28;20412;-77
2021/04/27 05:33:07;;;;;;;19.87;8.00;;;5.80;34.00;;;;;;5016048;28;20388;-77
2021/04/27 05:35:32;;;;;;;18.50;7.23;;;5.90;32.60;;;;;;5014331;28;20381;-77
2021/04/27 05:37:58;;;;;;;13.57;8.60;;;6.00;31.50;;;;;;5015500;28;20404;-77
2021/04/27 05:40:24;;;;;;;12.93;6.88;;;6.10;30.90;;;;;;5015549;28;20455;-76
2021/04/27 05:42:50;;;;;;;16.77;8.18;;;6.20;30.20;;;;;;5016062;28;20397;-77
2021/04/27 05:45:15;;;;;;;18.07;8.23;;;6.40;30.30;;;;;;5015031;28;20393;-76
2021/04/27 05:47:41;;;;;;;17.83;7.93;;;6.70;28.70;;;;;;5016119;28;20468;-76
2021/04/27 05:50:07;;;;;;;12.43;7.20;;;7.20;25.00;;;;;;5018481;28;20407;-77
2021/04/27 05:52:33;;;;;;;15.90;7.20;;;7.40;23.90;;;;;;4999286;28;20436;-75
2021/04/27 05:54:59;;;;;;;13.15;6.40;;;7.60;22.20;;;;;;5015439;28;20476;-76
2021/04/27 05:57:25;;;;;;;16.30;6.47;;;7.60;22.00;;;;;;5019363;28;20849;-75
2021/04/27 05:59:50;;;;;;;17.90;7.90;;;7.70;22.00;;;;;;5020402;28;20420;-76
2021/04/27 06:02:16;;;;;;;23.63;7.65;;;7.90;20.90;;;;;;5019905;28;20392;-76
2021/04/27 06:04:42;;;;;;;35.67;8.60;;;8.10;19.70;;;;;;5017874;28;20457;-75
2021/04/27 06:07:10;;;;;;;18.10;6.57;;;8.20;18.40;;;;;;5015682;28;20445;-76
2021/04/27 06:09:37;;;;;;;20.33;7.13;;;8.20;17.30;;;;;;5015760;28;20416;-76
2021/04/27 06:12:03;;;;;;;23.38;7.18;;;8.40;18.10;;;;;;5015184;28;20381;-76
2021/04/27 06:14:28;;;;;;;11.18;5.43;;;8.40;18.40;;;;;;5015855;28;20396;-76
2021/04/27 06:16:54;;;;;;;8.93;5.23;;;8.20;16.60;;;;;;5016358;28;20388;-73
2021/04/27 06:19:19;;;;;;;8.03;4.90;;;8.40;15.20;;;;;;5015046;28;20396;-75
2021/04/27 06:21:47;;;;;;;4.27;3.57;;;8.40;14.20;;;;;;5015158;28;20727;-73
2021/04/27 06:24:13;;;;;;;7.85;4.05;;;8.40;12.20;;;;;;5014382;28;20439;-73
2021/04/27 06:26:39;;;;;;;6.53;3.85;;;8.70;11.40;;;;;;5006099;28;20392;-73
2021/04/27 06:29:04;;;;;;;7.25;3.72;;;8.80;10.90;;;;;;5017150;28;20412;-76
2021/04/27 06:31:30;;;;;;;6.80;3.80;;;8.90;10.20;;;;;;5000013;28;20401;-77
2021/04/27 06:33:56;;;;;;;7.63;3.78;;;9.00;9.70;;;;;;4999523;28;20877;-76
2021/04/27 06:36:22;;;;;;;9.80;4.00;;;9.10;9.50;;;;;;5014749;28;20467;-75
2021/04/27 06:38:47;;;;;;;6.77;3.80;;;9.50;9.70;;;;;;5014704;28;20758;-74
2021/04/27 06:41:13;;;;;;;4.50;3.33;;;9.60;10.50;;;;;;5018151;28;20443;-77
2021/04/27 06:43:39;;;;;;;11.40;3.80;;;9.60;8.50;;;;;;5015103;28;20392;-75
2021/04/27 06:46:04;;;;;;;6.68;3.60;;;9.70;9.00;;;;;;5014469;28;20421;-75
2021/04/27 06:48:33;;;;;;;10.05;3.90;;;9.80;9.40;;;;;;5015460;28;20431;-74
2021/04/27 06:50:59;;;;;;;9.25;3.33;;;9.80;8.10;;;;;;5015275;28;20405;-75
2021/04/27 06:53:24;;;;;;;7.60;4.18;;;9.80;7.90;;;;;;5014932;28;20403;-76
2021/04/27 06:55:50;;;;;;;5.35;3.00;;;9.90;9.10;;;;;;5014865;28;20380;-74
2021/04/27 06:58:16;;;;;;;6.10;2.90;;;9.90;7.70;;;;;;4997142;28;20893;-76
2021/04/27 07:00:42;;;;;;;8.05;2.90;;;10.00;7.40;;;;;;5014076;28;20480;-76
2021/04/27 07:03:08;;;;;;;5.55;3.38;;;10.20;9.30;;;;;;5013816;28;20890;-76
2021/04/27 07:05:35;;;;;;;6.82;3.20;;;10.20;8.20;;;;;;5013447;28;20404;-76
2021/04/27 07:08:01;;;;;;;3.60;3.30;;;10.50;8.70;;;;;;5015465;28;20389;-76
2021/04/27 07:10:27;;;;;;;3.63;3.00;;;10.70;7.10;;;;;;5014143;28;20475;-76
2021/04/27 07:12:53;;;;;;;10.70;2.88;;;10.80;5.60;;;;;;4996178;28;20397;-76
2021/04/27 07:15:19;;;;;;;3.65;3.20;;;10.90;4.90;;;;;;5014071;28;20381;-76
2021/04/27 07:17:46;;;;;;;9.20;3.20;;;10.90;4.80;;;;;;5014979;28;20401;-78
2021/04/27 07:20:13;;;;;;;8.90;3.08;;;10.90;4.20;;;;;;5015784;28;20472;-75
2021/04/27 07:22:39;;;;;;;3.97;2.85;;;11.00;5.20;;;;;;5014866;28;20381;-77
2021/04/27 07:25:06;;;;;;;6.25;3.30;;;11.10;4.80;;;;;;5015744;28;20397;-75
2021/04/27 07:27:31;;;;;;;5.43;3.00;;;11.10;4.00;;;;;;4995916;28;20420;-75
2021/04/27 07:29:57;;;;;;;7.53;3.27;;;11.20;5.20;;;;;;5014290;28;20405;-76
2021/04/27 07:32:22;;;;;;;5.43;3.50;;;11.30;4.40;;;;;;5014410;28;20694;-75
2021/04/27 07:34:49;;;;;;;7.47;3.00;;;11.40;4.00;;;;;;4993843;28;20475;-75
2021/04/27 07:37:15;;;;;;;7.68;3.35;;;11.40;3.70;;;;;;4993509;28;20393;-77
2021/04/27 07:39:40;;;;;;;8.13;2.90;;;11.50;3.10;;;;;;4993642;28;20394;-76
2021/04/27 07:42:06;;;;;;;5.83;3.20;;;11.60;3.30;;;;;;4993918;28;20412;-76
2021/04/27 07:44:32;;;;;;;3.30;2.90;;;11.60;3.60;;;;;;4994204;28;20402;-76
2021/04/27 07:46:57;;;;;;;5.97;2.93;;;11.70;4.40;;;;;;4995268;28;20402;-76
2021/04/27 07:49:23;;;;;;;7.07;3.17;;;11.70;3.60;;;;;;4978954;28;20437;-77
2021/04/27 07:51:49;;;;;;;8.17;3.20;;;11.80;2.10;;;;;;4994240;28;20405;-75
2021/04/27 07:54:14;;;;;;;6.53;3.17;;;11.80;3.40;;;;;;4993356;28;20386;-75
2021/04/27 07:56:40;;;;;;;110.27;12.87;;;11.90;2.10;;;;;;4998215;28;20400;-75
2021/04/27 07:59:06;;;;;;;15.90;4.80;;;11.90;2.60;;;;;;5014124;28;20389;-76
2021/04/27 08:01:33;;;;;;;3.92;3.00;;;12.00;3.00;;;;;;5014544;28;20388;-76
2021/04/27 08:03:59;;;;;;;7.00;3.50;;;12.00;1.40;;;;;;5020220;28;20381;-77
2021/04/27 08:06:26;;;;;;;6.50;3.55;;;12.00;2.50;;;;;;4998804;28;20534;-75
2021/04/27 08:08:51;;;;;;;14.63;5.40;;;12.00;2.60;;;;;;5017137;28;20423;-76
2021/04/27 08:11:18;;;;;;;8.93;4.33;;;12.10;1.60;;;;;;5011366;28;20397;-78
2021/04/27 08:13:43;;;;;;;4.72;3.28;;;12.20;2.00;;;;;;5026729;28;20422;-78
2021/04/27 08:16:10;;;;;;;9.93;3.97;;;12.50;2.80;;;;;;5025742;28;20419;-76
2021/04/27 08:18:38;;;;;;;7.17;3.40;;;12.50;2.40;;;;;;5012353;28;20492;-75
2021/04/27 08:21:06;;;;;;;6.72;3.50;;;12.60;3.00;;;;;;5009196;28;20397;-75
2021/04/27 08:23:32;;;;;;;4.53;3.50;;;12.70;1.20;;;;;;4992299;28;20520;-75
2021/04/27 08:25:58;;;;;;;7.93;3.93;;;12.90;1.30;;;;;;4992391;28;20387;-75
2021/04/27 08:28:24;;;;;;;6.97;3.40;;;12.90;1.80;;;;;;4992498;28;20437;-75
2021/04/27 08:30:50;;;;;;;5.78;2.80;;;12.90;1.30;;;;;;5005693;28;20902;-76
2021/04/27 08:33:16;;;;;;;8.93;3.00;;;13.00;1.00;;;;;;4994359;28;20785;-75
2021/04/27 08:35:42;;;;;;;4.63;3.22;;;13.00;1.00;;;;;;5012534;28;20794;-76
2021/04/27 08:38:08;;;;;;;4.00;3.05;;;13.00;1.00;;;;;;5012336;28;20392;-76
2021/04/27 08:40:34;;;;;;;4.72;2.92;;;12.90;1.00;;;;;;5013095;28;20401;-76
2021/04/27 08:43:00;;;;;;;3.25;2.95;;;13.00;1.00;;;;;;4994654;28;20917;-76
2021/04/27 08:45:26;;;;;;;5.50;2.90;;;12.90;1.00;;;;;;4994097;28;20400;-76
2021/04/27 08:47:52;;;;;;;5.70;3.50;;;13.10;1.00;;;;;;5012990;28;20790;-76
2021/04/27 08:50:19;;;;;;;6.10;3.05;;;13.00;1.00;;;;;;5012225;28;20436;-75
2021/04/27 08:52:45;;;;;;;5.60;3.20;;;13.20;1.00;;;;;;5012113;28;20412;-76
2021/04/27 08:55:11;;;;;;;5.88;3.70;;;13.30;1.00;;;;;;5012173;28;20463;-77
2021/04/27 08:57:37;;;;;;;5.88;3.42;;;13.40;1.00;;;;;;4994771;28;20467;-76
2021/04/27 09:00:09;;;;;;;5.30;3.90;;;13.50;1.00;;;;;;5012100;28;20392;-75
2021/04/27 09:02:35;;;;;;;5.20;3.28;;;13.70;1.00;;;;;;5012130;28;20489;-76
2021/04/27 09:05:00;;;;;;;5.10;3.50;;;13.40;1.00;;;;;;5011777;28;20396;-77
2021/04/27 09:07:28;;;;;;;4.27;3.47;;;13.50;1.00;;;;;;5011452;28;20403;-76
2021/04/27 09:09:57;;;;;;;4.50;3.28;;;13.60;1.00;;;;;;5011724;28;20411;-75
2021/04/27 09:12:25;;;;;;;6.00;3.50;;;13.50;1.00;;;;;;5011783;28;20423;-75
2021/04/27 09:14:51;;;;;;;5.82;3.70;;;13.60;1.00;;;;;;5011547;28;20396;-75
2021/04/27 09:17:26;;;;;;;7.95;3.55;;;13.70;1.00;;;;;;5011597;28;20741;-77
2021/04/27 09:19:53;;;;;;;4.95;3.25;;;13.50;1.00;;;;;;5011518;28;20385;-75
2021/04/27 09:22:28;;;;;;;7.93;4.30;;;13.50;1.00;;;;;;5011592;28;20392;-75
2021/04/27 09:24:55;;;;;;;7.60;3.60;;;13.70;1.00;;;;;;5012659;28;20424;-76
2021/04/27 09:27:35;;;;;;;6.57;4.03;;;13.90;1.00;;;;;;4993814;28;20397;-76
2021/04/27 09:30:24;;;;;;;5.20;3.80;;;13.80;1.00;;;;;;5012055;28;20891;-76
2021/04/27 09:33:06;;;;;;;5.43;3.47;;;13.70;1.00;;;;;;5011342;28;20885;-76
2021/04/27 09:35:38;;;;;;;8.55;3.85;;;13.80;1.00;;;;;;5011001;28;20392;-76
2021/04/27 09:38:10;;;;;;;6.45;3.80;;;13.90;1.00;;;;;;5011316;28;20400;-76
2021/04/27 09:40:45;;;;;;;4.47;3.83;;;13.90;1.00;;;;;;5011821;28;20385;-76
2021/04/27 09:43:11;;;;;;;7.80;4.20;;;14.20;1.00;;;;;;5012653;28;20806;-76
2021/04/27 09:45:45;;;;;;;6.30;3.60;;;14.40;1.00;;;;;;5014206;28;20427;-75
2021/04/27 09:48:12;;;;;;;4.35;3.50;;;14.60;1.00;;;;;;5012542;28;20404;-76
2021/04/27 09:50:38;;;;;;;4.40;3.50;;;14.50;1.00;;;;;;5012254;28;20898;-75
2021/04/27 09:53:05;;;;;;;20.02;4.90;;;14.30;1.00;;;;;;5015339;28;20384;-74
2021/04/27 09:55:33;;;;;;;19.00;5.10;;;14.30;1.00;;;;;;4995954;28;20479;-77
2021/04/27 09:58:00;;;;;;;6.53;3.60;;;14.50;1.00;;;;;;5012732;28;20471;-75
2021/04/27 10:00:34;;;;;;;5.88;3.80;;;14.60;1.00;;;;;;5011568;28;20401;-76
2021/04/27 10:03:20;;;;;;;9.23;4.05;;;14.70;1.00;;;;;;5011668;28;20447;-77
2021/04/27 10:05:46;;;;;;;6.53;3.53;;;14.70;1.00;;;;;;5011511;28;20415;-76
2021/04/27 10:08:12;;;;;;;8.55;4.60;;;14.70;1.00;;;;;;5014236;28;20524;-78
2021/04/27 10:10:38;;;;;;;4.50;3.77;;;14.70;1.00;;;;;;5014225;28;20432;-77
2021/04/27 10:13:08;;;;;;;4.63;3.67;;;14.60;1.00;;;;;;5011502;28;20889;-75
2021/04/27 10:15:33;;;;;;;5.13;3.60;;;14.60;1.00;;;;;;5011635;28;20399;-76
2021/04/27 10:18:02;;;;;;;4.10;3.70;;;14.70;1.00;;;;;;5011710;28;20468;-77
2021/04/27 10:20:28;;;;;;;8.35;3.90;;;14.60;1.00;;;;;;4994382;28;20397;-77
2021/04/27 10:22:54;;;;;;;8.57;4.22;;;14.90;1.00;;;;;;5013976;28;20392;-77
2021/04/27 10:25:21;;;;;;;5.63;3.88;;;15.00;1.00;;;;;;5016716;28;20691;-76
2021/04/27 10:27:53;;;;;;;8.27;4.00;;;15.00;1.00;;;;;;5018693;28;20536;-74
2021/04/27 10:30:22;;;;;;;6.50;4.10;;;15.20;1.00;;;;;;5015001;28;20799;-75
2021/04/27 10:33:18;;;;;;;4.95;3.53;;;15.30;1.00;;;;;;5016828;28;20389;-75
2021/04/27 10:36:09;;;;;;;4.38;3.97;;;15.40;1.00;;;;;;5018775;28;20472;-77
2021/04/27 10:38:50;;;;;;;4.10;3.70;;;15.20;1.00;;;;;;5016466;28;20446;-76
2021/04/27 10:41:21;;;;;;;6.32;4.10;;;15.40;1.00;;;;;;5016240;28;20385;-76
2021/04/27 10:43:58;;;;;;;13.05;6.90;;;15.50;1.00;;;;;;5013606;28;20396;-76
2021/04/27 10:46:27;;;;;;;6.30;4.25;;;15.80;1.00;;;;;;5021648;28;20409;-77
2021/04/27 10:49:10;;;;;;;8.35;3.90;;;15.90;1.00;;;;;;5005627;28;20399;-74
2021/04/27 10:51:40;;;;;;;6.47;4.00;;;15.70;1.00;;;;;;5033310;28;20934;-72
2021/04/27 10:54:08;;;;;;;4.28;3.88;;;15.90;1.00;;;;;;5033487;28;20433;-73
2021/04/27 10:56:46;;;;;;;7.30;4.37;;;15.90;1.00;;;;;;5032997;28;20387;-75
2021/04/27 10:59:17;;;;;;;5.43;4.15;;;16.00;1.00;;;;;;5033225;28;20380;-74
2021/04/27 11:01:44;;;;;;;5.28;4.00;;;15.80;1.00;;;;;;4996811;28;20504;-74
2021/04/27 11:04:29;;;;;;;6.75;4.05;;;15.60;1.00;;;;;;5012991;28;20480;-73
2021/04/27 11:07:13;;;;;;;8.50;4.32;;;15.70;1.00;;;;;;4995055;28;20405;-73
2021/04/27 11:09:39;;;;;;;4.90;4.10;;;15.80;1.00;;;;;;5013356;28;20456;-74
2021/04/27 11:12:30;;;;;;;8.77;4.60;;;15.80;1.00;;;;;;5013162;28;20381;-73
2021/04/27 11:14:58;;;;;;;7.95;4.32;;;15.60;1.00;;;;;;5013938;28;20380;-77
2021/04/27 11:17:39;;;;;;;5.80;4.25;;;15.40;1.00;;;;;;5013867;28;20403;-77
2021/04/27 11:20:08;;;;;;;4.00;3.70;;;15.50;1.00;;;;;;5014000;28;20813;-77
2021/04/27 11:22:36;;;;;;;6.22;4.00;;;15.50;1.00;;;;;;5034396;28;20446;-76
2021/04/27 11:25:06;;;;;;;5.03;4.30;;;15.40;1.00;;;;;;5004319;28;20473;-79
2021/04/27 11:27:39;;;;;;;6.10;3.80;;;15.10;1.00;;;;;;5014130;28;20487;-76
2021/04/27 11:30:09;;;;;;;6.63;4.25;;;15.10;1.00;;;;;;5013107;28;20476;-77
2021/04/27 11:32:37;;;;;;;6.23;3.87;;;15.20;1.00;;;;;;5011776;28;20424;-76
2021/04/27 11:35:14;;;;;;;6.70;4.20;;;15.20;1.00;;;;;;5015988;28;20389;-77
2021/04/27 11:37:47;;;;;;;5.25;3.97;;;15.20;1.00;;;;;;5013210;28;20389;-76
2021/04/27 11:40:42;;;;;;;5.00;4.15;;;15.10;1.00;;;;;;4995458;28;20396;-76
2021/04/27 11:43:14;;;;;;;4.97;4.20;;;15.20;1.00;;;;;;5012774;28;20460;-77
2021/04/27 11:45:43;;;;;;;5.85;4.38;;;15.30;1.00;;;;;;5011414;28;20389;-76
2021/04/27 11:48:17;;;;;;;6.65;4.82;;;15.50;1.00;;;;;;4995230;28;20403;-77
2021/04/27 11:50:43;;;;;;;6.57;4.70;;;15.80;1.00;;;;;;5012694;28;20518;-77
2021/04/27 11:53:16;;;;;;;4.53;4.03;;;16.10;1.00;;;;;;5013066;28;20901;-77
2021/04/27 11:55:43;;;;;;;6.50;4.30;;;16.10;1.00;;;;;;5013484;28;20396;-73
2021/04/27 11:58:10;;;;;;;4.80;4.13;;;16.20;1.00;;;;;;5001627;28;20387;-76
2021/04/27 12:00:55;;;;;;;10.27;4.50;;;16.30;1.00;;;;;;5014835;28;20451;-77
2021/04/27 12:03:38;;;;;;;8.75;4.80;;;16.40;1.00;;;;;;5032686;28;20386;-75
2021/04/27 12:06:07;;;;;;;7.10;4.63;;;16.50;1.00;;;;;;4993076;28;20403;-73
2021/04/27 12:08:34;;;;;;;7.45;4.40;;;16.30;1.00;;;;;;4992186;28;20580;-73
2021/04/27 12:11:11;;;;;;;8.68;4.53;;;16.20;1.00;;;;;;4992471;28;20410;-73
2021/04/27 12:13:42;;;;;;;6.50;4.60;;;16.30;1.00;;;;;;4993556;28;20444;-75
2021/04/27 12:16:11;;;;;;;5.55;4.20;;;16.60;1.00;;;;;;4992664;28;20389;-74
2021/04/27 12:19:09;;;;;;;6.80;4.00;;;16.80;1.00;;;;;;5012083;28;20565;-74
2021/04/27 12:21:51;;;;;;;5.70;4.20;;;16.70;1.00;;;;;;5013015;28;20393;-73
2021/04/27 12:24:20;;;;;;;5.93;4.70;;;16.60;1.00;;;;;;5015214;28;20380;-76
2021/04/27 12:27:14;;;;;;;5.25;4.05;;;16.70;1.00;;;;;;5012892;28;20900;-75
2021/04/27 12:29:58;;;;;;;4.95;4.30;;;16.90;1.00;;;;;;5012642;28;20471;-76
2021/04/27 12:32:26;;;;;;;6.20;4.60;;;16.90;1.00;;;;;;5012141;28;20789;-75
2021/04/27 12:35:05;;;;;;;4.75;4.05;;;16.60;1.00;;;;;;4994022;28;20821;-75
2021/04/27 12:37:36;;;;;;;4.40;3.85;;;16.70;1.00;;;;;;5020998;28;20427;-74
2021/04/27 12:40:23;;;;;;;8.07;4.90;;;16.90;1.00;;;;;;5031926;28;20391;-74
2021/04/27 12:43:04;;;;;;;7.17;4.73;;;17.10;1.00;;;;;;5031050;28;20864;-75
2021/04/27 12:45:56;;;;;;;7.00;4.47;;;17.20;1.00;;;;;;5029094;28;20821;-75
2021/04/27 12:48:22;;;;;;;6.75;4.70;;;17.20;1.00;;;;;;5030777;28;20405;-74
2021/04/27 12:50:58;;;;;;;12.32;4.50;;;17.20;1.00;;;;;;5031122;28;20899;-75
2021/04/27 12:53:41;;;;;;;5.88;4.00;;;17.30;1.00;;;;;;5027230;28;20723;-75
2021/04/27 12:56:14;;;;;;;7.68;4.57;;;17.40;1.00;;;;;;5011946;28;20464;-74
2021/04/27 12:58:41;;;;;;;6.70;4.20;;;17.40;1.00;;;;;;5031246;28;20406;-75